Time;durP1;ratioP1;P1;durP2;ratioP2;P2;SDS_P1;SDS_P2;PMS_P1;PMS_P2;Temp;Humidity;BMP_temperature;BMP_pressure;BME280_temperature;BME280_humidity;BME280_pressure;Samples;Min_cycle;Max_cycle;Signal;HPM_P1;HPM_P2
2024/02/28 00:01:50;;;;;;;12.30;7.63;;;15.40;61.90;;;;;;5007145;28;20524;-77
2024/02/28 00:04:18;;;;;;;11.20;8.00;;;15.30;61.80;;;;;;5002431;28;20441;-78
2024/02/28 00:06:47;;;;;;;12.90;8.57;;;15.30;61.90;;;;;;5005252;28;20448;-78
2024/02/28 00:09:15;;;;;;;12.57;8.43;;;15.30;61.90;;;;;;5003027;28;20529;-78
2024/02/28 00:11:44;;;;;;;13.40;8.37;;;15.30;61.70;;;;;;5001294;28;20484;-78
2024/02/28 00:14:12;;;;;;;13.90;8.33;;;15.20;61.70;;;;;;5003885;28;20580;-79
2024/02/28 00:16:41;;;;;;;11.90;8.20;;;15.20;61.70;;;;;;5011617;28;20504;-78
2024/02/28 00:19:11;;;;;;;11.40;8.00;;;15.20;61.40;;;;;;4995742;28;20500;-78
2024/02/28 00:21:39;;;;;;;12.90;8.63;;;15.20;61.40;;;;;;5009865;28;20440;-78
2024/02/28 00:24:07;;;;;;;13.10;7.80;;;15.10;61.20;;;;;;4998815;28;20529;-79
2024/02/28 00:26:35;;;;;;;10.20;7.93;;;15.10;61.20;;;;;;5001438;28;20453;-78
2024/02/28 00:29:03;;;;;;;14.27;8.50;;;15.10;61.30;;;;;;5002111;28;20548;-78
2024/02/28 00:31:31;;;;;;;15.33;8.37;;;15.00;61.20;;;;;;5006242;28;20567;-78
2024/02/28 00:33:59;;;;;;;13.00;8.40;;;15.10;61.10;;;;;;5001090;28;20441;-78
2024/02/28 00:36:28;;;;;;;14.47;8.80;;;15.00;60.90;;;;;;5000804;28;20441;-78
2024/02/28 00:39:14;;;;;;;12.53;8.23;;;15.00;60.90;;;;;;4999107;28;20555;-77
2024/02/28 00:41:42;;;;;;;13.23;8.73;;;15.00;60.70;;;;;;5005894;28;20458;-78
2024/02/28 00:44:10;;;;;;;10.33;7.97;;;15.00;60.60;;;;;;5001979;28;20948;-78
2024/02/28 00:46:40;;;;;;;12.00;8.07;;;14.90;60.60;;;;;;5010763;28;20535;-78
2024/02/28 00:49:08;;;;;;;12.27;8.37;;;14.90;60.60;;;;;;5000830;28;20470;-78
2024/02/28 00:51:38;;;;;;;13.90;8.73;;;14.90;60.30;;;;;;4994283;28;20481;-78
2024/02/28 00:54:08;;;;;;;14.37;8.50;;;14.90;60.30;;;;;;5012894;28;20453;-78
2024/02/28 00:56:36;;;;;;;14.80;9.17;;;14.90;60.20;;;;;;5004615;28;20448;-79
2024/02/28 00:59:06;;;;;;;13.60;9.13;;;14.80;60.50;;;;;;5011754;28;20514;-78
2024/02/28 01:01:34;;;;;;;11.63;8.00;;;14.90;60.30;;;;;;5013238;28;20455;-78
2024/02/28 01:04:02;;;;;;;12.47;8.00;;;14.80;60.40;;;;;;5004064;28;20440;-78
2024/02/28 01:06:30;;;;;;;16.50;9.20;;;14.80;60.10;;;;;;5007068;28;20524;-78
2024/02/28 01:08:59;;;;;;;15.20;8.97;;;14.80;60.10;;;;;;4996051;28;20464;-77
2024/02/28 01:11:27;;;;;;;16.40;8.80;;;14.80;60.10;;;;;;5006237;28;20468;-78
2024/02/28 01:13:55;;;;;;;12.57;8.63;;;14.80;60.10;;;;;;5012060;28;20439;-77
2024/02/28 01:16:22;;;;;;;14.30;8.67;;;14.80;60.10;;;;;;5007638;28;20493;-77
2024/02/28 01:18:50;;;;;;;12.30;8.70;;;14.70;59.90;;;;;;5009304;28;20538;-77
2024/02/28 01:21:19;;;;;;;13.67;9.00;;;14.80;60.00;;;;;;4996651;28;20444;-78
2024/02/28 01:23:47;;;;;;;16.10;9.40;;;14.70;59.90;;;;;;4996066;28;20509;-77
2024/02/28 01:26:16;;;;;;;15.97;9.27;;;14.70;59.80;;;;;;5003907;28;20504;-78
2024/02/28 01:28:44;;;;;;;16.63;9.70;;;14.70;59.80;;;;;;5002808;28;20500;-78
2024/02/28 01:31:12;;;;;;;16.17;9.73;;;14.60;59.50;;;;;;5018115;28;20473;-78
2024/02/28 01:33:40;;;;;;;15.60;9.60;;;14.60;59.70;;;;;;5000575;28;20477;-78
2024/02/28 01:36:08;;;;;;;17.60;9.90;;;14.60;59.70;;;;;;4999435;28;20447;-77
2024/02/28 01:38:36;;;;;;;17.80;9.50;;;14.60;59.60;;;;;;4998914;28;20536;-77
2024/02/28 01:41:05;;;;;;;15.10;10.07;;;14.60;59.40;;;;;;4996434;28;20471;-78
2024/02/28 01:43:34;;;;;;;15.57;9.90;;;14.60;59.60;;;;;;5006166;28;20456;-78
2024/02/28 01:46:04;;;;;;;14.97;9.60;;;14.50;59.40;;;;;;5003546;28;20495;-78
2024/02/28 01:48:31;;;;;;;17.73;10.20;;;14.60;59.30;;;;;;5007570;28;20494;-78
2024/02/28 01:50:59;;;;;;;15.90;9.67;;;14.50;59.30;;;;;;5005821;28;20479;-78
2024/02/28 01:53:27;;;;;;;16.70;10.77;;;14.50;59.50;;;;;;5007035;28;20449;-79
2024/02/28 01:55:56;;;;;;;15.80;10.20;;;14.50;59.30;;;;;;5012574;28;20440;-79
2024/02/28 01:58:24;;;;;;;16.90;10.27;;;14.50;59.40;;;;;;5012733;28;20506;-78
2024/02/28 02:00:54;;;;;;;23.73;13.80;;;14.50;59.20;;;;;;5012437;28;20469;-77
2024/02/28 02:03:22;;;;;;;25.70;15.20;;;14.50;59.40;;;;;;5011854;28;20460;-78
2024/02/28 02:05:50;;;;;;;26.87;15.70;;;14.40;59.40;;;;;;5012060;28;20455;-78
2024/02/28 02:08:19;;;;;;;29.00;16.00;;;14.40;59.20;;;;;;5011970;28;20536;-77
2024/02/28 02:10:46;;;;;;;31.03;17.13;;;14.50;59.30;;;;;;5015166;28;20463;-77
2024/02/28 02:13:15;;;;;;;31.70;18.30;;;14.40;59.20;;;;;;5016034;28;20452;-77
2024/02/28 02:15:43;;;;;;;32.13;18.97;;;14.40;59.40;;;;;;5014685;28;20526;-78
2024/02/28 02:18:13;;;;;;;33.37;19.30;;;14.40;59.40;;;;;;5015977;28;20444;-78
2024/02/28 02:20:44;;;;;;;40.50;21.60;;;14.40;59.40;;;;;;5050616;22;20490;-77
2024/02/28 02:23:14;;;;;;;37.53;21.00;;;14.40;59.40;;;;;;5035142;28;20470;-76
2024/02/28 02:25:45;;;;;;;37.53;21.53;;;14.40;59.50;;;;;;5035231;28;20439;-76
2024/02/28 02:28:13;;;;;;;41.27;22.80;;;14.40;59.30;;;;;;5035431;28;20438;-78
2024/02/28 02:30:42;;;;;;;41.80;23.20;;;14.40;59.50;;;;;;5035546;28;20824;-78
2024/02/28 02:33:10;;;;;;;41.00;21.83;;;14.40;59.60;;;;;;5035476;28;20475;-78
2024/02/28 02:35:38;;;;;;;46.20;24.63;;;14.40;59.40;;;;;;5035695;28;20493;-77
2024/02/28 02:38:06;;;;;;;45.90;23.70;;;14.50;59.70;;;;;;5035584;28;20543;-77
2024/02/28 02:40:36;;;;;;;41.70;22.63;;;14.40;59.60;;;;;;5035293;28;20498;-78
2024/02/28 02:43:04;;;;;;;42.13;23.30;;;14.40;59.80;;;;;;5035492;28;20449;-79
2024/02/28 02:45:32;;;;;;;41.60;22.87;;;14.40;59.80;;;;;;5035736;28;21008;-78
2024/02/28 02:48:00;;;;;;;42.53;23.77;;;14.50;59.90;;;;;;5035441;28;20447;-78
2024/02/28 02:50:28;;;;;;;40.50;22.50;;;14.40;59.80;;;;;;5035190;28;20459;-78
2024/02/28 02:52:56;;;;;;;42.30;23.23;;;14.50;60.10;;;;;;5035108;28;20471;-78
2024/02/28 02:55:24;;;;;;;45.13;24.07;;;14.50;60.70;;;;;;5035418;28;20534;-78
2024/02/28 02:57:54;;;;;;;43.87;24.30;;;14.40;60.00;;;;;;5034909;28;20501;-77
2024/02/28 03:00:22;;;;;;;43.53;22.90;;;14.40;60.00;;;;;;5035323;28;20562;-78
2024/02/28 03:02:50;;;;;;;42.20;23.43;;;14.40;59.90;;;;;;5034724;28;20493;-78
2024/02/28 03:05:19;;;;;;;43.03;23.80;;;14.40;59.90;;;;;;5035251;28;20483;-78
2024/02/28 03:07:47;;;;;;;41.17;22.20;;;14.40;60.00;;;;;;5035154;28;20523;-79
2024/02/28 03:10:15;;;;;;;41.80;23.00;;;14.40;60.10;;;;;;5034867;28;20494;-78
2024/02/28 03:12:43;;;;;;;40.40;23.23;;;14.50;60.20;;;;;;5034884;28;20540;-76
2024/02/28 03:15:12;;;;;;;37.80;21.53;;;14.40;59.90;;;;;;5035032;28;20442;-77
2024/02/28 03:17:40;;;;;;;41.33;23.00;;;14.40;60.00;;;;;;5034561;28;20439;-77
2024/02/28 03:20:09;;;;;;;42.00;22.30;;;14.40;60.00;;;;;;5032137;28;20482;-78
2024/02/28 03:22:37;;;;;;;37.83;19.57;;;14.40;60.00;;;;;;5034813;28;20440;-78
2024/02/28 03:25:06;;;;;;;38.20;20.27;;;14.40;60.00;;;;;;5034501;28;20502;-78
2024/02/28 03:27:34;;;;;;;40.33;21.40;;;14.40;60.10;;;;;;5034573;28;20444;-78
2024/02/28 03:30:03;;;;;;;38.30;21.00;;;14.40;59.90;;;;;;5034587;28;20538;-77
2024/02/28 03:32:32;;;;;;;42.90;22.57;;;14.40;60.00;;;;;;5034628;28;20503;-78
2024/02/28 03:35:00;;;;;;;35.30;19.63;;;14.40;60.10;;;;;;5034149;28;20432;-77
2024/02/28 03:37:27;;;;;;;35.07;20.93;;;14.40;60.20;;;;;;5034307;28;20442;-78
2024/02/28 03:39:56;;;;;;;36.10;20.40;;;14.40;60.30;;;;;;5034418;28;20471;-78
2024/02/28 03:42:24;;;;;;;36.17;20.77;;;14.40;60.20;;;;;;5034344;28;20493;-78
2024/02/28 03:44:52;;;;;;;51.30;20.57;;;14.40;60.20;;;;;;5034153;28;20977;-77
2024/02/28 03:47:20;;;;;;;32.50;18.70;;;14.40;60.10;;;;;;5034593;28;20475;-78
2024/02/28 03:49:49;;;;;;;37.33;19.43;;;14.40;60.20;;;;;;5034753;28;20467;-79
2024/02/28 03:52:18;;;;;;;33.87;18.93;;;14.40;60.10;;;;;;5034707;28;20467;-79
2024/02/28 03:54:46;;;;;;;33.00;18.80;;;14.40;60.20;;;;;;5034293;28;20475;-79
2024/02/28 03:57:14;;;;;;;34.87;19.20;;;14.40;60.20;;;;;;5034430;28;20546;-78
2024/02/28 03:59:42;;;;;;;37.10;19.27;;;14.40;60.20;;;;;;5034355;28;20500;-77
2024/02/28 04:02:10;;;;;;;36.80;19.47;;;14.40;60.10;;;;;;5031587;28;20493;-78
2024/02/28 04:04:38;;;;;;;33.23;17.90;;;14.40;60.20;;;;;;5032795;28;20537;-78
2024/02/28 04:07:08;;;;;;;30.97;17.37;;;14.30;60.10;;;;;;5030857;28;20444;-78
2024/02/28 04:09:36;;;;;;;29.90;17.63;;;14.40;60.10;;;;;;5034421;28;20467;-79
2024/02/28 04:12:04;;;;;;;30.63;16.40;;;14.30;60.00;;;;;;5033894;28;20519;-79
2024/02/28 04:14:32;;;;;;;31.23;18.37;;;14.40;60.00;;;;;;5030959;28;20451;-78
2024/02/28 04:17:00;;;;;;;29.30;17.00;;;14.30;60.00;;;;;;5033669;28;20495;-79
2024/02/28 04:19:28;;;;;;;32.27;17.50;;;14.30;60.00;;;;;;5034524;28;20476;-78
2024/02/28 04:21:56;;;;;;;31.87;17.47;;;14.30;60.20;;;;;;5034833;28;20475;-78
2024/02/28 04:24:26;;;;;;;26.87;15.77;;;14.30;59.90;;;;;;5034671;28;20546;-79
2024/02/28 04:26:54;;;;;;;30.67;16.20;;;14.30;60.00;;;;;;5033882;28;20458;-78
2024/02/28 04:29:22;;;;;;;29.33;16.13;;;14.30;60.10;;;;;;5033342;28;20468;-77
2024/02/28 04:31:50;;;;;;;29.90;16.77;;;14.30;60.20;;;;;;5032561;28;20534;-78
2024/02/28 04:34:18;;;;;;;28.83;16.13;;;14.30;60.00;;;;;;5033273;28;20566;-78
2024/02/28 04:36:46;;;;;;;27.83;15.37;;;14.30;60.10;;;;;;5033729;28;20478;-77
2024/02/28 04:39:15;;;;;;;26.47;15.00;;;14.30;60.00;;;;;;5033578;28;20459;-79
2024/02/28 04:41:44;;;;;;;29.43;15.83;;;14.30;60.20;;;;;;5034444;28;20443;-79
2024/02/28 04:44:12;;;;;;;27.77;15.37;;;14.30;60.10;;;;;;5034192;28;20497;-78
2024/02/28 04:46:41;;;;;;;29.10;14.63;;;14.30;60.10;;;;;;5033103;28;20444;-79
2024/02/28 04:49:09;;;;;;;24.50;14.27;;;14.30;60.20;;;;;;5032765;28;20913;-78
2024/02/28 04:51:38;;;;;;;26.80;14.77;;;14.30;60.20;;;;;;5033358;28;20431;-78
2024/02/28 04:54:06;;;;;;;28.67;15.03;;;14.30;60.20;;;;;;5033289;28;20521;-79
2024/02/28 04:56:34;;;;;;;25.93;14.67;;;14.30;60.40;;;;;;5033647;28;20435;-79
2024/02/28 04:59:03;;;;;;;26.77;14.33;;;14.30;60.20;;;;;;5033822;28;20824;-78
2024/02/28 05:01:31;;;;;;;23.17;13.33;;;14.30;60.20;;;;;;5033379;28;20463;-78
2024/02/28 05:03:59;;;;;;;24.60;14.20;;;14.30;60.40;;;;;;5033091;28;20562;-78
2024/02/28 05:06:27;;;;;;;25.10;14.57;;;14.30;60.40;;;;;;5032989;28;20436;-78
2024/02/28 05:08:55;;;;;;;23.23;13.33;;;14.30;60.20;;;;;;5032639;28;20502;-78
2024/02/28 05:11:24;;;;;;;23.90;14.20;;;14.30;60.40;;;;;;5032735;28;20451;-76
2024/02/28 05:13:52;;;;;;;24.10;13.50;;;14.30;60.30;;;;;;5032894;28;20550;-79
2024/02/28 05:16:21;;;;;;;25.03;14.00;;;14.30;60.40;;;;;;5031938;28;20512;-79
2024/02/28 05:18:49;;;;;;;23.60;13.00;;;14.30;60.40;;;;;;5031958;28;20463;-78
2024/02/28 05:21:17;;;;;;;23.60;13.73;;;14.30;60.30;;;;;;5032370;28;20447;-79
2024/02/28 05:23:45;;;;;;;26.37;15.20;;;14.30;60.30;;;;;;5033111;28;20439;-79
2024/02/28 05:26:13;;;;;;;29.13;14.47;;;14.30;60.40;;;;;;5032397;28;20474;-78
2024/02/28 05:28:41;;;;;;;25.67;14.17;;;14.20;60.30;;;;;;5032436;28;20531;-78
2024/02/28 05:31:22;;;;;;;24.30;13.87;;;14.20;60.40;;;;;;5032846;28;20463;-78
2024/02/28 05:33:52;;;;;;;23.57;12.57;;;14.30;60.30;;;;;;5026318;28;20464;-79
2024/02/28 05:36:20;;;;;;;24.97;14.30;;;14.30;60.40;;;;;;5031857;28;20447;-77
2024/02/28 05:38:48;;;;;;;23.30;13.10;;;14.20;60.20;;;;;;5031723;28;20446;-77
2024/02/28 05:41:17;;;;;;;23.30;12.97;;;14.20;60.30;;;;;;5031918;28;20530;-77
2024/02/28 05:43:45;;;;;;;22.20;12.40;;;14.30;60.40;;;;;;5031462;28;20436;-79
2024/02/28 05:46:13;;;;;;;19.60;12.00;;;14.20;60.20;;;;;;5032049;28;20471;-77
2024/02/28 05:48:43;;;;;;;20.97;12.73;;;14.30;60.40;;;;;;5032452;28;20448;-78
2024/02/28 05:51:11;;;;;;;21.17;13.10;;;14.30;60.40;;;;;;5034864;28;20487;-77
2024/02/28 05:53:40;;;;;;;26.20;13.27;;;14.30;60.30;;;;;;5028838;28;20529;-77
2024/02/28 05:56:13;;;;;;;21.80;12.00;;;14.20;60.20;;;;;;5032836;28;20444;-79
2024/02/28 05:58:42;;;;;;;23.90;12.83;;;14.20;60.40;;;;;;5032266;28;20671;-78
2024/02/28 06:01:10;;;;;;;20.20;11.57;;;14.20;60.40;;;;;;5031770;28;20455;-78
2024/02/28 06:03:38;;;;;;;20.73;12.57;;;14.20;60.30;;;;;;5022921;28;20439;-78
2024/02/28 06:06:08;;;;;;;23.80;13.30;;;14.30;60.20;;;;;;5028926;28;20475;-79
2024/02/28 06:08:39;;;;;;;23.00;12.60;;;14.20;60.00;;;;;;5033044;28;20432;-78
2024/02/28 06:11:06;;;;;;;23.47;12.57;;;14.20;60.20;;;;;;5033286;28;20467;-79
2024/02/28 06:13:34;;;;;;;24.97;12.80;;;14.20;60.30;;;;;;5032818;28;20479;-78
2024/02/28 06:16:03;;;;;;;23.10;12.17;;;14.20;60.30;;;;;;5032201;28;20475;-78
2024/02/28 06:18:33;;;;;;;22.00;12.53;;;14.20;60.40;;;;;;5031936;28;20475;-78
2024/02/28 06:21:01;;;;;;;24.60;13.37;;;14.20;60.30;;;;;;5028677;28;20490;-79
2024/02/28 06:23:31;;;;;;;24.57;13.90;;;14.20;60.40;;;;;;5026753;28;20440;-79
2024/02/28 06:25:59;;;;;;;21.43;12.13;;;14.20;60.20;;;;;;5033884;28;20475;-79
2024/02/28 06:28:27;;;;;;;23.40;12.90;;;14.20;60.20;;;;;;5033672;28;20978;-79
2024/02/28 06:30:55;;;;;;;19.83;11.53;;;14.20;60.30;;;;;;5034023;28;20485;-79
2024/02/28 06:33:23;;;;;;;24.00;13.70;;;14.20;60.20;;;;;;5034865;28;20439;-80
2024/02/28 06:35:51;;;;;;;20.50;11.67;;;14.20;60.40;;;;;;5035885;28;20446;-79
2024/02/28 06:38:19;;;;;;;20.53;11.80;;;14.20;60.30;;;;;;5035601;28;20447;-79
2024/02/28 06:40:49;;;;;;;25.60;12.77;;;14.20;60.40;;;;;;5034907;28;20471;-79
2024/02/28 06:43:17;;;;;;;22.90;12.70;;;14.20;60.40;;;;;;5035325;28;20451;-79
2024/02/28 06:45:45;;;;;;;21.40;12.10;;;14.20;60.30;;;;;;5036664;28;20447;-79
2024/02/28 06:48:14;;;;;;;24.13;12.50;;;14.20;60.50;;;;;;5037133;28;20450;-78
2024/02/28 06:50:42;;;;;;;22.10;12.60;;;14.20;60.40;;;;;;5038202;28;20467;-78
2024/02/28 06:53:10;;;;;;;22.70;11.73;;;14.20;60.40;;;;;;5037819;28;20551;-79
2024/02/28 06:55:38;;;;;;;21.30;12.20;;;14.20;60.30;;;;;;5033581;28;20471;-78
2024/02/28 06:58:07;;;;;;;21.10;12.67;;;14.20;60.20;;;;;;5036518;28;20447;-79
2024/02/28 07:00:35;;;;;;;23.10;13.30;;;14.20;60.10;;;;;;5034643;28;20457;-79
2024/02/28 07:03:04;;;;;;;20.80;12.07;;;14.20;60.20;;;;;;5036826;28;20501;-79
2024/02/28 07:05:33;;;;;;;26.03;12.83;;;14.20;60.10;;;;;;5029867;28;20482;-78
2024/02/28 07:08:01;;;;;;;21.73;12.10;;;14.30;60.10;;;;;;5034545;28;20447;-79
2024/02/28 07:10:29;;;;;;;21.53;12.50;;;14.30;60.40;;;;;;5034517;28;20539;-79
2024/02/28 07:12:57;;;;;;;21.83;12.70;;;14.20;60.20;;;;;;5034593;28;20475;-78
2024/02/28 07:15:27;;;;;;;25.50;13.17;;;14.20;60.30;;;;;;5033905;28;20476;-78
2024/02/28 07:17:54;;;;;;;22.90;12.60;;;14.20;60.30;;;;;;5035879;28;20440;-78
2024/02/28 07:20:24;;;;;;;21.97;12.70;;;14.20;60.10;;;;;;5036573;28;20478;-79
2024/02/28 07:22:52;;;;;;;22.17;12.07;;;14.20;60.10;;;;;;5034375;28;20470;-78
2024/02/28 07:32:34;;;;;;;26.10;13.17;;;14.30;60.30;;;;;;5025802;28;20456;-79
2024/02/28 07:35:02;;;;;;;23.50;12.17;;;14.20;60.20;;;;;;5034891;28;20471;-77
2024/02/28 07:37:33;;;;;;;27.07;13.30;;;14.20;60.30;;;;;;5036859;28;20451;-77
2024/02/28 07:40:01;;;;;;;24.30;13.30;;;14.20;60.20;;;;;;5036050;28;20471;-78
2024/02/28 07:42:29;;;;;;;27.60;13.27;;;14.30;60.10;;;;;;5027605;28;20474;-79
2024/02/28 07:44:57;;;;;;;23.20;12.40;;;14.20;60.00;;;;;;5040209;28;20468;-78
2024/02/28 07:47:25;;;;;;;24.37;13.47;;;14.30;60.20;;;;;;5040936;28;20444;-79
2024/02/28 07:49:55;;;;;;;25.03;13.00;;;14.30;60.10;;;;;;5036190;28;20490;-78
2024/02/28 07:52:23;;;;;;;24.67;13.37;;;14.30;60.00;;;;;;5036033;28;20512;-79
2024/02/28 07:54:51;;;;;;;23.33;12.90;;;14.30;60.00;;;;;;5035934;28;20901;-79
2024/02/28 07:57:19;;;;;;;25.00;13.17;;;14.30;59.90;;;;;;5036972;28;20530;-79
2024/02/28 07:59:47;;;;;;;24.10;12.30;;;14.30;60.10;;;;;;5036201;28;20463;-79
2024/02/28 08:02:15;;;;;;;23.30;12.50;;;14.40;60.10;;;;;;5035828;28;20467;-79
2024/02/28 08:04:43;;;;;;;24.90;12.67;;;14.40;60.20;;;;;;5035924;28;20467;-78
2024/02/28 08:07:12;;;;;;;20.73;11.77;;;14.40;60.10;;;;;;5034616;28;20471;-78
2024/02/28 08:09:40;;;;;;;22.70;12.03;;;14.40;60.20;;;;;;5035911;28;20494;-79
2024/02/28 08:12:09;;;;;;;21.50;12.27;;;14.40;60.10;;;;;;5037237;28;20474;-78
2024/02/28 08:14:37;;;;;;;21.13;11.70;;;14.40;60.00;;;;;;5035776;28;20566;-78
2024/02/28 08:17:05;;;;;;;23.33;12.73;;;14.40;60.20;;;;;;5035671;28;20513;-79
2024/02/28 08:19:35;;;;;;;26.43;13.30;;;14.40;60.20;;;;;;5037098;28;21002;-77
2024/02/28 08:22:03;;;;;;;23.93;13.50;;;14.40;60.10;;;;;;5034990;28;20443;-79
2024/02/28 08:24:32;;;;;;;23.57;13.63;;;14.40;60.00;;;;;;5035474;28;20444;-79
2024/02/28 08:27:01;;;;;;;25.30;14.10;;;14.40;60.00;;;;;;5035830;28;20514;-79
2024/02/28 08:29:29;;;;;;;24.77;13.30;;;14.40;59.80;;;;;;5035596;28;20487;-78
2024/02/28 08:31:57;;;;;;;23.33;12.77;;;14.40;59.90;;;;;;5023193;28;20487;-79
2024/02/28 08:34:25;;;;;;;26.73;13.07;;;14.50;59.90;;;;;;5032785;28;20474;-79
2024/02/28 08:36:53;;;;;;;24.20;14.17;;;14.50;59.90;;;;;;5035210;28;20454;-79
2024/02/28 08:39:21;;;;;;;20.10;12.20;;;14.50;59.80;;;;;;5035174;28;20462;-78
2024/02/28 08:41:51;;;;;;;22.10;12.97;;;14.50;59.90;;;;;;5035097;28;20440;-78
2024/02/28 08:44:19;;;;;;;26.80;13.17;;;14.50;59.90;;;;;;5040096;28;20454;-79
2024/02/28 08:46:47;;;;;;;22.63;13.03;;;14.50;59.90;;;;;;5040149;28;20512;-78
2024/02/28 08:49:16;;;;;;;26.40;13.77;;;14.50;60.00;;;;;;5040846;28;20545;-78
2024/02/28 08:51:48;;;;;;;26.03;13.03;;;14.60;60.00;;;;;;5041232;28;20478;-78
2024/02/28 08:54:17;;;;;;;21.33;11.63;;;14.60;60.10;;;;;;5046173;28;20523;-77
2024/02/28 08:56:45;;;;;;;21.33;11.97;;;14.60;60.00;;;;;;5036111;28;20478;-78
2024/02/28 08:59:25;;;;;;;24.20;13.23;;;14.60;59.90;;;;;;5032636;28;20451;-77
2024/02/28 09:01:53;;;;;;;22.87;12.67;;;14.60;59.90;;;;;;5033019;28;20481;-77
2024/02/28 09:04:21;;;;;;;22.83;12.43;;;14.70;60.10;;;;;;5033242;28;20548;-77
2024/02/28 09:06:49;;;;;;;23.83;12.70;;;14.70;60.10;;;;;;5033546;28;20432;-76
2024/02/28 09:09:17;;;;;;;26.67;12.33;;;14.70;60.20;;;;;;5038463;28;20455;-77
2024/02/28 09:11:45;;;;;;;20.57;12.07;;;14.70;60.50;;;;;;5053543;28;20446;-77
2024/02/28 09:14:13;;;;;;;19.70;12.10;;;14.70;60.50;;;;;;5050275;28;20434;-77
2024/02/28 09:16:42;;;;;;;24.37;13.53;;;14.70;60.30;;;;;;5052335;28;20476;-77
2024/02/28 09:34:39;;;;;;;25.60;12.80;;;14.70;60.30;;;;;;5030259;28;20422;-78
2024/02/28 10:31:10;;;;;;;23.47;12.30;;;14.90;61.50;;;;;;5031276;28;20509;-78
2024/02/28 10:33:38;;;;;;;21.93;11.57;;;15.00;61.50;;;;;;5032483;28;20530;-77
2024/02/28 10:36:06;;;;;;;22.27;12.30;;;15.00;61.60;;;;;;5035258;28;20474;-77
2024/02/28 10:50:47;;;;;;;20.17;11.53;;;15.10;61.40;;;;;;5033025;28;20399;-77
2024/02/28 10:53:17;;;;;;;26.50;13.23;;;15.10;61.40;;;;;;5031156;28;20512;-79
2024/02/28 11:02:54;;;;;;;25.80;12.60;;;15.20;61.30;;;;;;5032059;28;20398;-76
2024/02/28 11:05:22;;;;;;;25.33;12.73;;;15.30;61.50;;;;;;5030653;28;20482;-77
2024/02/28 11:07:52;;;;;;;21.80;11.37;;;15.30;61.40;;;;;;5033927;28;20447;-77
2024/02/28 11:10:24;;;;;;;21.77;12.70;;;15.40;61.70;;;;;;5036572;28;20550;-77
2024/02/28 11:12:55;;;;;;;24.17;11.97;;;15.40;61.50;;;;;;5032152;28;20551;-78
2024/02/28 11:15:26;;;;;;;21.30;11.90;;;15.50;61.50;;;;;;5030320;28;20506;-77
2024/02/28 11:17:54;;;;;;;29.13;13.10;;;15.50;61.50;;;;;;5033567;28;20450;-77
2024/02/28 11:20:22;;;;;;;20.17;11.43;;;15.60;61.50;;;;;;5035035;28;20478;-77
2024/02/28 11:22:58;;;;;;;19.17;11.57;;;15.60;61.70;;;;;;5027108;28;20505;-77
2024/02/28 11:25:27;;;;;;;21.60;12.60;;;15.70;61.50;;;;;;5030424;28;20449;-78
2024/02/28 11:27:55;;;;;;;20.17;11.40;;;15.70;61.60;;;;;;5034074;28;20478;-80
2024/02/28 11:30:24;;;;;;;20.80;12.10;;;15.70;62.30;;;;;;5035352;28;20498;-79
2024/02/28 11:40:29;;;;;;;19.60;11.43;;;15.80;61.70;;;;;;5031779;28;20428;-78
2024/02/28 11:42:59;;;;;;;22.57;12.73;;;15.90;61.80;;;;;;5032443;28;20448;-79
2024/02/28 11:45:27;;;;;;;22.07;12.97;;;15.90;61.90;;;;;;5035941;28;20448;-79
2024/02/28 11:47:55;;;;;;;21.80;13.57;;;16.00;61.80;;;;;;5035526;28;20542;-79
2024/02/28 11:50:26;;;;;;;24.30;12.57;;;16.10;61.50;;;;;;5036099;28;20473;-80
2024/02/28 11:52:54;;;;;;;18.27;11.47;;;16.20;61.60;;;;;;5036918;28;20440;-79
2024/02/28 11:55:22;;;;;;;25.63;13.47;;;16.40;61.70;;;;;;5037040;28;20972;-77
2024/02/28 11:57:52;;;;;;;26.37;12.33;;;16.40;61.40;;;;;;5037653;28;20535;-78
2024/02/28 12:00:20;;;;;;;24.13;13.90;;;16.50;61.20;;;;;;5036985;28;20471;-77
2024/02/28 12:02:48;;;;;;;25.27;13.77;;;16.60;61.50;;;;;;5044436;28;20458;-78
2024/02/28 12:05:20;;;;;;;19.33;12.77;;;16.70;61.20;;;;;;5046357;28;20449;-77
2024/02/28 12:07:48;;;;;;;38.63;21.33;;;16.70;61.00;;;;;;5045625;28;20440;-77
2024/02/28 12:10:17;;;;;;;47.57;23.00;;;15.20;53.20;;;;;;5057195;28;20470;-78
2024/02/28 12:12:45;;;;;;;51.23;24.00;;;13.00;57.80;;;;;;5057423;28;20452;-77
2024/02/28 12:15:16;;;;;;;55.93;24.17;;;10.80;62.40;;;;;;5056314;28;20459;-78
2024/02/28 12:17:44;;;;;;;48.77;23.20;;;9.90;68.90;;;;;;5015844;28;20472;-76
2024/02/28 12:20:12;;;;;;;49.37;23.00;;;10.10;78.40;;;;;;5013854;28;20473;-77
2024/02/28 12:22:40;;;;;;;47.90;22.17;;;11.40;78.30;;;;;;5014299;28;20452;-76
2024/02/28 12:25:09;;;;;;;45.53;20.77;;;12.30;73.90;;;;;;5014522;28;20520;-77
2024/02/28 12:27:37;;;;;;;39.37;19.53;;;13.10;70.70;;;;;;5014276;28;20444;-77
2024/02/28 12:30:06;;;;;;;45.50;20.77;;;13.60;67.80;;;;;;5014229;28;20468;-77
2024/02/28 12:32:36;;;;;;;39.33;20.50;;;14.10;65.80;;;;;;5014972;28;20472;-77
2024/02/28 12:35:05;;;;;;;41.40;20.40;;;14.60;64.80;;;;;;5014392;28;20451;-77
2024/02/28 12:37:33;;;;;;;40.43;19.57;;;14.90;63.10;;;;;;5014611;28;21085;-77
2024/02/28 12:40:02;;;;;;;36.80;19.23;;;15.10;62.10;;;;;;5015182;28;20472;-77
2024/02/28 12:42:30;;;;;;;33.83;18.23;;;15.30;61.30;;;;;;5015024;28;20444;-77
2024/02/28 12:44:58;;;;;;;35.13;19.20;;;15.50;61.10;;;;;;5014798;28;20475;-77
2024/02/28 12:47:26;;;;;;;35.90;19.10;;;15.70;60.80;;;;;;5015076;28;20503;-77
2024/02/28 12:49:56;;;;;;;33.67;18.07;;;16.00;61.00;;;;;;5014802;28;20477;-77
2024/02/28 12:52:24;;;;;;;32.00;18.60;;;16.20;60.30;;;;;;5014025;28;20481;-77
2024/02/28 12:54:53;;;;;;;33.90;18.30;;;16.60;60.40;;;;;;5013334;28;20448;-77
2024/02/28 12:57:20;;;;;;;34.93;18.50;;;17.10;59.30;;;;;;5013804;28;20530;-77
2024/02/28 12:59:48;;;;;;;29.07;17.30;;;17.20;58.50;;;;;;5014038;28;20567;-77
2024/02/28 13:02:19;;;;;;;33.47;18.37;;;17.20;58.30;;;;;;5014191;28;20448;-77
2024/02/28 13:04:48;;;;;;;26.20;16.33;;;17.30;58.20;;;;;;5013573;28;20463;-77
2024/02/28 13:07:19;;;;;;;30.73;17.00;;;17.40;58.60;;;;;;5013489;28;20448;-77
2024/02/28 13:09:47;;;;;;;32.80;17.63;;;17.50;58.30;;;;;;5013338;28;20476;-76
2024/02/28 13:12:15;;;;;;;30.57;16.87;;;17.60;58.30;;;;;;5013685;28;20452;-76
2024/02/28 13:14:43;;;;;;;23.77;15.70;;;17.70;58.20;;;;;;5013920;28;20448;-77
2024/02/28 13:17:11;;;;;;;23.37;14.70;;;17.70;58.00;;;;;;5013414;28;20500;-77
2024/02/28 13:19:39;;;;;;;29.07;16.70;;;18.10;58.90;;;;;;5013406;28;20499;-77
2024/02/28 13:22:07;;;;;;;26.47;16.10;;;18.20;57.70;;;;;;5013777;28;20451;-77
2024/02/28 13:24:37;;;;;;;22.93;14.73;;;18.20;57.20;;;;;;5013849;28;20443;-77
2024/02/28 13:27:05;;;;;;;25.80;15.40;;;18.10;57.00;;;;;;5014190;28;20451;-77
2024/02/28 13:32:40;;;;;;;23.20;14.33;;;17.90;57.50;;;;;;5016664;28;20453;-77
2024/02/28 13:35:10;;;;;;;26.73;15.67;;;17.80;57.70;;;;;;5017617;28;20504;-77
2024/02/28 13:37:40;;;;;;;22.20;15.33;;;17.70;57.80;;;;;;5019348;28;20472;-78
2024/02/28 13:40:11;;;;;;;27.37;15.67;;;17.70;58.20;;;;;;5019172;28;20491;-78
2024/02/28 13:42:39;;;;;;;24.50;15.10;;;17.60;58.10;;;;;;5023829;28;20448;-78
2024/02/28 13:45:09;;;;;;;22.10;13.63;;;17.50;58.30;;;;;;5021855;28;20455;-79
2024/02/28 13:47:37;;;;;;;23.90;13.67;;;17.50;58.70;;;;;;5019414;28;20439;-77
2024/02/28 13:50:06;;;;;;;24.17;14.73;;;17.40;58.70;;;;;;5020749;28;20468;-78
2024/02/28 13:52:35;;;;;;;29.50;14.87;;;17.40;58.70;;;;;;5014943;28;20471;-77
2024/02/28 13:55:03;;;;;;;22.90;14.57;;;17.40;59.00;;;;;;5013694;28;20523;-78
2024/02/28 13:57:32;;;;;;;25.10;14.10;;;17.40;59.00;;;;;;5015666;28;20476;-78
2024/02/28 14:00:00;;;;;;;19.83;13.30;;;17.40;59.10;;;;;;5033110;28;20549;-76
2024/02/28 14:02:28;;;;;;;22.70;14.03;;;17.40;59.30;;;;;;5027314;28;20458;-78
2024/02/28 14:04:56;;;;;;;22.40;13.87;;;17.40;59.10;;;;;;5030514;28;20900;-78
2024/02/28 14:07:24;;;;;;;21.63;13.57;;;17.40;59.40;;;;;;5032440;28;20566;-78
2024/02/28 14:09:52;;;;;;;21.50;14.30;;;17.50;59.40;;;;;;5022675;28;20534;-78
2024/02/28 14:12:20;;;;;;;20.93;13.60;;;17.50;59.50;;;;;;5032762;28;20454;-77
2024/02/28 14:14:50;;;;;;;21.00;13.10;;;17.50;59.50;;;;;;5032039;28;20447;-77
2024/02/28 14:17:18;;;;;;;20.07;13.40;;;17.60;59.60;;;;;;5024930;28;20474;-78
2024/02/28 14:19:48;;;;;;;19.13;12.60;;;17.70;59.80;;;;;;5030418;28;20525;-78
2024/02/28 14:22:16;;;;;;;20.00;13.23;;;17.80;59.70;;;;;;5031791;28;20535;-78